sensor_id;sensor_type;location;lat;lon;timestamp;temperature;humidity
32400;DHT22;45045;45.440;9.178;2022-10-16T00:00:37;23.40;82.80
32400;DHT22;45045;45.440;9.178;2022-10-16T00:03:04;23.50;82.80
32400;DHT22;45045;45.440;9.178;2022-10-16T00:05:30;23.30;83.10
32400;DHT22;45045;45.440;9.178;2022-10-16T00:07:56;23.30;83.40
32400;DHT22;45045;45.440;9.178;2022-10-16T00:10:22;23.20;83.70
32400;DHT22;45045;45.440;9.178;2022-10-16T00:12:48;23.20;83.90
32400;DHT22;45045;45.440;9.178;2022-10-16T00:15:13;23.30;83.80
32400;DHT22;45045;45.440;9.178;2022-10-16T00:17:39;23.40;83.30
32400;DHT22;45045;45.440;9.178;2022-10-16T00:20:05;23.40;83.10
32400;DHT22;45045;45.440;9.178;2022-10-16T00:22:31;23.40;83.00
32400;DHT22;45045;45.440;9.178;2022-10-16T00:24:57;23.40;83.00
32400;DHT22;45045;45.440;9.178;2022-10-16T00:27:22;23.30;83.30
32400;DHT22;45045;45.440;9.178;2022-10-16T00:29:51;23.40;83.40
32400;DHT22;45045;45.440;9.178;2022-10-16T00:32:18;23.30;83.30
32400;DHT22;45045;45.440;9.178;2022-10-16T00:34:44;23.30;83.40
32400;DHT22;45045;45.440;9.178;2022-10-16T00:37:11;23.30;83.60
32400;DHT22;45045;45.440;9.178;2022-10-16T00:39:36;23.40;83.30
32400;DHT22;45045;45.440;9.178;2022-10-16T00:42:02;23.40;83.30
32400;DHT22;45045;45.440;9.178;2022-10-16T00:45:01;23.40;83.00
32400;DHT22;45045;45.440;9.178;2022-10-16T00:47:30;23.30;83.20
32400;DHT22;45045;45.440;9.178;2022-10-16T00:50:09;23.30;83.30
32400;DHT22;45045;45.440;9.178;2022-10-16T00:52:39;23.20;83.10
32400;DHT22;45045;45.440;9.178;2022-10-16T00:55:06;23.30;83.20
32400;DHT22;45045;45.440;9.178;2022-10-16T00:57:32;23.30;83.00
32400;DHT22;45045;45.440;9.178;2022-10-16T00:59:58;23.30;83.00
32400;DHT22;45045;45.440;9.178;2022-10-16T01:02:24;23.10;83.20
32400;DHT22;45045;45.440;9.178;2022-10-16T01:04:53;23.20;83.90
32400;DHT22;45045;45.440;9.178;2022-10-16T01:12:55;23.20;83.60
32400;DHT22;45045;45.440;9.178;2022-10-16T01:15:42;23.10;83.90
32400;DHT22;45045;45.440;9.178;2022-10-16T01:21:08;23.20;84.10
32400;DHT22;45045;45.440;9.178;2022-10-16T01:37:42;23.00;83.80
32400;DHT22;45045;45.440;9.178;2022-10-16T01:40:12;22.90;84.20
32400;DHT22;45045;45.440;9.178;2022-10-16T01:42:48;22.90;84.60
32400;DHT22;45045;45.440;9.178;2022-10-16T01:45:16;23.10;84.30
32400;DHT22;45045;45.440;9.178;2022-10-16T01:47:44;23.10;83.30
32400;DHT22;45045;45.440;9.178;2022-10-16T01:50:12;23.10;83.90
32400;DHT22;45045;45.440;9.178;2022-10-16T01:52:41;23.10;84.20
32400;DHT22;45045;45.440;9.178;2022-10-16T01:55:09;23.10;83.50
32400;DHT22;45045;45.440;9.178;2022-10-16T01:57:39;23.10;83.20
32400;DHT22;45045;45.440;9.178;2022-10-16T02:00:10;23.20;83.30
32400;DHT22;45045;45.440;9.178;2022-10-16T02:02:40;23.20;83.20
32400;DHT22;45045;45.440;9.178;2022-10-16T02:07:43;23.20;83.30
32400;DHT22;45045;45.440;9.178;2022-10-16T02:10:09;23.20;83.30
32400;DHT22;45045;45.440;9.178;2022-10-16T02:12:38;23.20;83.40
32400;DHT22;45045;45.440;9.178;2022-10-16T02:15:06;23.30;83.60
32400;DHT22;45045;45.440;9.178;2022-10-16T02:17:32;23.30;83.70
32400;DHT22;45045;45.440;9.178;2022-10-16T02:19:59;23.30;83.80
32400;DHT22;45045;45.440;9.178;2022-10-16T02:22:38;23.30;83.10
32400;DHT22;45045;45.440;9.178;2022-10-16T02:30:41;23.10;83.50
32400;DHT22;45045;45.440;9.178;2022-10-16T02:33:10;23.10;83.30
32400;DHT22;45045;45.440;9.178;2022-10-16T02:35:40;23.10;83.10
32400;DHT22;45045;45.440;9.178;2022-10-16T02:38:08;23.10;83.20
32400;DHT22;45045;45.440;9.178;2022-10-16T02:40:34;23.10;83.60
32400;DHT22;45045;45.440;9.178;2022-10-16T02:43:00;23.10;83.50
32400;DHT22;45045;45.440;9.178;2022-10-16T02:45:28;23.10;83.20
32400;DHT22;45045;45.440;9.178;2022-10-16T02:47:54;23.20;83.30
32400;DHT22;45045;45.440;9.178;2022-10-16T02:50:20;23.20;83.50
32400;DHT22;45045;45.440;9.178;2022-10-16T02:52:46;23.10;83.80
32400;DHT22;45045;45.440;9.178;2022-10-16T02:55:11;23.10;83.70
32400;DHT22;45045;45.440;9.178;2022-10-16T02:57:37;23.10;83.60
32400;DHT22;45045;45.440;9.178;2022-10-16T03:00:05;23.10;84.00
32400;DHT22;45045;45.440;9.178;2022-10-16T03:02:31;23.10;84.40
32400;DHT22;45045;45.440;9.178;2022-10-16T03:04:56;23.10;84.40
32400;DHT22;45045;45.440;9.178;2022-10-16T03:07:22;23.10;84.00
32400;DHT22;45045;45.440;9.178;2022-10-16T03:09:47;23.10;83.90
32400;DHT22;45045;45.440;9.178;2022-10-16T03:12:13;23.20;83.70
32400;DHT22;45045;45.440;9.178;2022-10-16T03:14:39;23.20;83.70
32400;DHT22;45045;45.440;9.178;2022-10-16T03:17:05;23.20;83.70
32400;DHT22;45045;45.440;9.178;2022-10-16T03:19:31;23.20;83.70
32400;DHT22;45045;45.440;9.178;2022-10-16T03:21:57;23.20;83.70
32400;DHT22;45045;45.440;9.178;2022-10-16T03:24:25;23.20;83.70
32400;DHT22;45045;45.440;9.178;2022-10-16T03:26:50;23.20;84.60
32400;DHT22;45045;45.440;9.178;2022-10-16T03:29:16;23.20;84.00
32400;DHT22;45045;45.440;9.178;2022-10-16T03:31:41;23.20;84.10
32400;DHT22;45045;45.440;9.178;2022-10-16T03:34:07;23.20;84.00
32400;DHT22;45045;45.440;9.178;2022-10-16T03:36:34;23.20;83.20
32400;DHT22;45045;45.440;9.178;2022-10-16T03:39:00;23.20;83.20
32400;DHT22;45045;45.440;9.178;2022-10-16T03:41:25;23.20;83.30
32400;DHT22;45045;45.440;9.178;2022-10-16T03:43:52;23.20;83.30
32400;DHT22;45045;45.440;9.178;2022-10-16T03:46:18;23.20;83.60
32400;DHT22;45045;45.440;9.178;2022-10-16T03:48:43;23.20;83.70
32400;DHT22;45045;45.440;9.178;2022-10-16T03:51:09;23.20;83.80
32400;DHT22;45045;45.440;9.178;2022-10-16T03:53:35;23.20;83.80
32400;DHT22;45045;45.440;9.178;2022-10-16T03:56:00;23.20;83.70
32400;DHT22;45045;45.440;9.178;2022-10-16T03:58:26;23.20;83.70
32400;DHT22;45045;45.440;9.178;2022-10-16T04:00:51;23.20;83.60
32400;DHT22;45045;45.440;9.178;2022-10-16T04:03:17;23.20;83.70
32400;DHT22;45045;45.440;9.178;2022-10-16T04:05:44;23.20;83.70
32400;DHT22;45045;45.440;9.178;2022-10-16T04:08:10;23.20;83.90
32400;DHT22;45045;45.440;9.178;2022-10-16T04:10:35;23.20;83.90
32400;DHT22;45045;45.440;9.178;2022-10-16T04:13:01;23.10;83.70
32400;DHT22;45045;45.440;9.178;2022-10-16T04:15:27;23.20;83.30
32400;DHT22;45045;45.440;9.178;2022-10-16T04:17:52;23.20;83.70
32400;DHT22;45045;45.440;9.178;2022-10-16T04:20:18;23.20;83.80
32400;DHT22;45045;45.440;9.178;2022-10-16T04:22:44;23.10;83.70
32400;DHT22;45045;45.440;9.178;2022-10-16T04:25:10;23.20;83.80
32400;DHT22;45045;45.440;9.178;2022-10-16T04:27:37;23.20;83.90
32400;DHT22;45045;45.440;9.178;2022-10-16T04:30:04;23.10;84.00
32400;DHT22;45045;45.440;9.178;2022-10-16T04:32:30;23.10;84.10
32400;DHT22;45045;45.440;9.178;2022-10-16T04:34:55;23.10;84.10
32400;DHT22;45045;45.440;9.178;2022-10-16T04:37:25;23.10;83.80
32400;DHT22;45045;45.440;9.178;2022-10-16T04:39:51;23.20;84.00
32400;DHT22;45045;45.440;9.178;2022-10-16T04:42:17;23.10;83.90
32400;DHT22;45045;45.440;9.178;2022-10-16T04:44:43;23.20;83.90
32400;DHT22;45045;45.440;9.178;2022-10-16T04:47:08;23.10;83.90
32400;DHT22;45045;45.440;9.178;2022-10-16T04:49:34;23.10;84.10
32400;DHT22;45045;45.440;9.178;2022-10-16T04:52:00;23.10;84.20
32400;DHT22;45045;45.440;9.178;2022-10-16T04:54:25;23.10;84.20
32400;DHT22;45045;45.440;9.178;2022-10-16T04:56:51;23.10;84.10
32400;DHT22;45045;45.440;9.178;2022-10-16T04:59:18;23.10;84.00
32400;DHT22;45045;45.440;9.178;2022-10-16T05:01:44;23.10;84.10
32400;DHT22;45045;45.440;9.178;2022-10-16T05:04:10;23.10;84.10
32400;DHT22;45045;45.440;9.178;2022-10-16T05:06:37;23.10;84.20
32400;DHT22;45045;45.440;9.178;2022-10-16T05:09:06;23.10;84.20
32400;DHT22;45045;45.440;9.178;2022-10-16T05:11:32;23.10;84.20
32400;DHT22;45045;45.440;9.178;2022-10-16T05:13:59;23.10;84.30
32400;DHT22;45045;45.440;9.178;2022-10-16T05:16:25;23.10;84.40
32400;DHT22;45045;45.440;9.178;2022-10-16T05:18:51;23.10;84.50
32400;DHT22;45045;45.440;9.178;2022-10-16T05:21:17;23.10;84.60
32400;DHT22;45045;45.440;9.178;2022-10-16T05:23:43;23.10;84.40
32400;DHT22;45045;45.440;9.178;2022-10-16T05:26:09;23.10;84.30
32400;DHT22;45045;45.440;9.178;2022-10-16T05:28:35;23.10;84.40
32400;DHT22;45045;45.440;9.178;2022-10-16T05:31:05;23.00;84.50
32400;DHT22;45045;45.440;9.178;2022-10-16T05:33:32;23.10;84.60
32400;DHT22;45045;45.440;9.178;2022-10-16T05:36:02;23.00;84.60
32400;DHT22;45045;45.440;9.178;2022-10-16T05:38:28;23.10;84.40
32400;DHT22;45045;45.440;9.178;2022-10-16T05:40:54;23.10;84.30
32400;DHT22;45045;45.440;9.178;2022-10-16T05:43:20;23.00;84.50
32400;DHT22;45045;45.440;9.178;2022-10-16T05:45:56;23.10;84.60
32400;DHT22;45045;45.440;9.178;2022-10-16T05:48:23;23.00;84.50
32400;DHT22;45045;45.440;9.178;2022-10-16T05:50:56;23.10;84.50
32400;DHT22;45045;45.440;9.178;2022-10-16T05:53:22;23.10;84.60
32400;DHT22;45045;45.440;9.178;2022-10-16T05:55:57;23.00;84.60
32400;DHT22;45045;45.440;9.178;2022-10-16T05:58:24;23.00;84.70
32400;DHT22;45045;45.440;9.178;2022-10-16T06:01:02;23.00;84.70
32400;DHT22;45045;45.440;9.178;2022-10-16T06:03:29;23.00;84.60
32400;DHT22;45045;45.440;9.178;2022-10-16T06:05:54;23.00;84.60
32400;DHT22;45045;45.440;9.178;2022-10-16T06:08:22;23.00;84.80
32400;DHT22;45045;45.440;9.178;2022-10-16T06:10:49;23.00;84.90
32400;DHT22;45045;45.440;9.178;2022-10-16T06:13:15;23.00;84.90
32400;DHT22;45045;45.440;9.178;2022-10-16T06:15:42;23.00;84.80
32400;DHT22;45045;45.440;9.178;2022-10-16T06:18:10;23.00;84.70
32400;DHT22;45045;45.440;9.178;2022-10-16T06:20:37;23.00;85.30
32400;DHT22;45045;45.440;9.178;2022-10-16T06:23:03;22.90;86.20
32400;DHT22;45045;45.440;9.178;2022-10-16T06:25:30;22.90;85.30
32400;DHT22;45045;45.440;9.178;2022-10-16T06:27:56;22.90;85.30
32400;DHT22;45045;45.440;9.178;2022-10-16T06:30:22;22.90;85.30
32400;DHT22;45045;45.440;9.178;2022-10-16T06:32:48;22.90;85.30
32400;DHT22;45045;45.440;9.178;2022-10-16T06:35:13;23.00;85.30
32400;DHT22;45045;45.440;9.178;2022-10-16T06:37:39;22.90;85.50
32400;DHT22;45045;45.440;9.178;2022-10-16T06:40:05;22.90;85.40
32400;DHT22;45045;45.440;9.178;2022-10-16T06:42:31;22.90;85.50
32400;DHT22;45045;45.440;9.178;2022-10-16T06:44:56;22.90;85.50
32400;DHT22;45045;45.440;9.178;2022-10-16T06:47:22;23.00;85.50
32400;DHT22;45045;45.440;9.178;2022-10-16T06:49:47;22.90;85.90
32400;DHT22;45045;45.440;9.178;2022-10-16T06:52:13;22.80;86.50
32400;DHT22;45045;45.440;9.178;2022-10-16T06:54:39;22.80;87.20
32400;DHT22;45045;45.440;9.178;2022-10-16T06:57:04;22.80;86.70
32400;DHT22;45045;45.440;9.178;2022-10-16T06:59:30;22.90;86.30
32400;DHT22;45045;45.440;9.178;2022-10-16T07:01:55;22.90;86.20
32400;DHT22;45045;45.440;9.178;2022-10-16T07:04:21;22.90;86.20
32400;DHT22;45045;45.440;9.178;2022-10-16T07:06:47;22.90;85.90
32400;DHT22;45045;45.440;9.178;2022-10-16T07:09:12;22.90;86.40
32400;DHT22;45045;45.440;9.178;2022-10-16T07:11:40;22.80;86.30
32400;DHT22;45045;45.440;9.178;2022-10-16T07:14:18;22.80;86.20
32400;DHT22;45045;45.440;9.178;2022-10-16T07:16:44;22.90;86.10
32400;DHT22;45045;45.440;9.178;2022-10-16T07:19:10;22.80;86.80
32400;DHT22;45045;45.440;9.178;2022-10-16T07:21:37;22.90;86.50
32400;DHT22;45045;45.440;9.178;2022-10-16T07:24:05;22.80;86.40
32400;DHT22;45045;45.440;9.178;2022-10-16T07:26:35;22.90;86.40
32400;DHT22;45045;45.440;9.178;2022-10-16T07:29:01;22.90;86.40
32400;DHT22;45045;45.440;9.178;2022-10-16T07:31:27;22.80;86.80
32400;DHT22;45045;45.440;9.178;2022-10-16T07:33:53;22.70;87.60
32400;DHT22;45045;45.440;9.178;2022-10-16T07:36:20;22.70;87.70
32400;DHT22;45045;45.440;9.178;2022-10-16T07:38:46;22.60;88.00
32400;DHT22;45045;45.440;9.178;2022-10-16T07:41:14;22.60;88.90
32400;DHT22;45045;45.440;9.178;2022-10-16T07:43:48;22.70;88.00
32400;DHT22;45045;45.440;9.178;2022-10-16T07:46:15;22.60;88.20
32400;DHT22;45045;45.440;9.178;2022-10-16T07:48:42;22.60;88.10
32400;DHT22;45045;45.440;9.178;2022-10-16T07:51:11;22.60;87.90
32400;DHT22;45045;45.440;9.178;2022-10-16T07:53:37;22.70;87.90
32400;DHT22;45045;45.440;9.178;2022-10-16T07:56:07;22.50;88.30
32400;DHT22;45045;45.440;9.178;2022-10-16T07:58:34;22.50;89.70
32400;DHT22;45045;45.440;9.178;2022-10-16T08:01:05;22.50;89.50
32400;DHT22;45045;45.440;9.178;2022-10-16T08:03:31;22.40;89.80
32400;DHT22;45045;45.440;9.178;2022-10-16T08:05:57;22.30;90.00
32400;DHT22;45045;45.440;9.178;2022-10-16T08:08:23;22.30;90.20
32400;DHT22;45045;45.440;9.178;2022-10-16T08:10:49;22.40;90.10
32400;DHT22;45045;45.440;9.178;2022-10-16T08:13:15;22.40;90.10
32400;DHT22;45045;45.440;9.178;2022-10-16T08:15:42;22.30;90.30
32400;DHT22;45045;45.440;9.178;2022-10-16T08:18:09;22.30;90.20
32400;DHT22;45045;45.440;9.178;2022-10-16T08:20:34;22.40;90.20
32400;DHT22;45045;45.440;9.178;2022-10-16T08:23:00;22.30;90.50
32400;DHT22;45045;45.440;9.178;2022-10-16T08:25:27;22.30;90.50
32400;DHT22;45045;45.440;9.178;2022-10-16T08:27:52;22.20;90.50
32400;DHT22;45045;45.440;9.178;2022-10-16T08:30:19;22.40;90.30
32400;DHT22;45045;45.440;9.178;2022-10-16T08:32:46;22.50;90.20
32400;DHT22;45045;45.440;9.178;2022-10-16T08:35:12;22.60;89.90
32400;DHT22;45045;45.440;9.178;2022-10-16T08:37:38;22.50;90.00
32400;DHT22;45045;45.440;9.178;2022-10-16T08:40:06;22.50;90.10
32400;DHT22;45045;45.440;9.178;2022-10-16T08:48:27;22.70;89.30
32400;DHT22;45045;45.440;9.178;2022-10-16T08:50:55;22.70;89.40
32400;DHT22;45045;45.440;9.178;2022-10-16T08:53:31;22.60;89.60
32400;DHT22;45045;45.440;9.178;2022-10-16T08:55:59;22.80;89.60
32400;DHT22;45045;45.440;9.178;2022-10-16T08:58:29;23.00;88.90
32400;DHT22;45045;45.440;9.178;2022-10-16T09:01:01;23.00;88.70
32400;DHT22;45045;45.440;9.178;2022-10-16T09:09:23;23.10;87.10
32400;DHT22;45045;45.440;9.178;2022-10-16T09:12:15;23.20;87.10
32400;DHT22;45045;45.440;9.178;2022-10-16T09:23:12;23.10;87.30
32400;DHT22;45045;45.440;9.178;2022-10-16T09:25:42;23.10;86.70
32400;DHT22;45045;45.440;9.178;2022-10-16T09:28:09;23.10;87.70
32400;DHT22;45045;45.440;9.178;2022-10-16T09:30:35;23.20;88.10
32400;DHT22;45045;45.440;9.178;2022-10-16T09:33:03;23.10;88.30
32400;DHT22;45045;45.440;9.178;2022-10-16T09:35:51;22.90;88.40
32400;DHT22;45045;45.440;9.178;2022-10-16T09:38:31;23.00;89.20
32400;DHT22;45045;45.440;9.178;2022-10-16T09:40:59;23.20;88.00
32400;DHT22;45045;45.440;9.178;2022-10-16T09:43:39;23.30;88.40
32400;DHT22;45045;45.440;9.178;2022-10-16T09:46:25;23.40;87.70
32400;DHT22;45045;45.440;9.178;2022-10-16T09:48:58;23.50;86.80
32400;DHT22;45045;45.440;9.178;2022-10-16T09:51:27;23.50;87.00
32400;DHT22;45045;45.440;9.178;2022-10-16T09:56:35;23.40;86.50
32400;DHT22;45045;45.440;9.178;2022-10-16T09:59:08;23.30;87.10
32400;DHT22;45045;45.440;9.178;2022-10-16T10:04:08;23.50;86.50
32400;DHT22;45045;45.440;9.178;2022-10-16T10:06:36;23.60;86.90
32400;DHT22;45045;45.440;9.178;2022-10-16T10:09:04;23.70;86.40
32400;DHT22;45045;45.440;9.178;2022-10-16T10:11:44;23.70;85.30
32400;DHT22;45045;45.440;9.178;2022-10-16T10:14:22;23.80;85.90
32400;DHT22;45045;45.440;9.178;2022-10-16T10:16:49;23.80;85.70
32400;DHT22;45045;45.440;9.178;2022-10-16T10:19:23;23.80;85.60
32400;DHT22;45045;45.440;9.178;2022-10-16T10:21:50;23.70;85.20
32400;DHT22;45045;45.440;9.178;2022-10-16T10:24:18;23.50;86.00
32400;DHT22;45045;45.440;9.178;2022-10-16T10:27:00;23.70;85.60
32400;DHT22;45045;45.440;9.178;2022-10-16T10:29:38;23.80;85.00
32400;DHT22;45045;45.440;9.178;2022-10-16T10:32:38;23.80;84.40
32400;DHT22;45045;45.440;9.178;2022-10-16T10:35:16;23.70;85.20
32400;DHT22;45045;45.440;9.178;2022-10-16T10:37:48;23.80;84.50
32400;DHT22;45045;45.440;9.178;2022-10-16T10:40:48;23.90;84.60
32400;DHT22;45045;45.440;9.178;2022-10-16T10:46:02;24.20;85.00
32400;DHT22;45045;45.440;9.178;2022-10-16T10:51:13;23.80;83.30
32400;DHT22;45045;45.440;9.178;2022-10-16T10:56:43;23.70;83.60
32400;DHT22;45045;45.440;9.178;2022-10-16T11:07:04;24.20;84.20
32400;DHT22;45045;45.440;9.178;2022-10-16T11:09:38;24.70;82.90
32400;DHT22;45045;45.440;9.178;2022-10-16T11:12:17;25.10;80.20
32400;DHT22;45045;45.440;9.178;2022-10-16T11:15:17;25.30;79.80
32400;DHT22;45045;45.440;9.178;2022-10-16T11:17:45;25.40;78.90
32400;DHT22;45045;45.440;9.178;2022-10-16T11:20:24;25.30;79.00
32400;DHT22;45045;45.440;9.178;2022-10-16T11:23:11;25.40;77.70
32400;DHT22;45045;45.440;9.178;2022-10-16T11:25:39;25.50;77.60
32400;DHT22;45045;45.440;9.178;2022-10-16T11:28:16;25.40;77.30
32400;DHT22;45045;45.440;9.178;2022-10-16T11:31:02;25.50;78.60
32400;DHT22;45045;45.440;9.178;2022-10-16T11:33:39;25.50;78.70
32400;DHT22;45045;45.440;9.178;2022-10-16T11:36:23;25.20;77.20
32400;DHT22;45045;45.440;9.178;2022-10-16T11:50:04;25.60;78.30
32400;DHT22;45045;45.440;9.178;2022-10-16T11:55:34;26.90;72.00
32400;DHT22;45045;45.440;9.178;2022-10-16T11:58:05;27.30;71.70
32400;DHT22;45045;45.440;9.178;2022-10-16T12:00:36;27.20;70.20
32400;DHT22;45045;45.440;9.178;2022-10-16T12:03:22;26.60;70.80
32400;DHT22;45045;45.440;9.178;2022-10-16T12:08:44;25.80;73.60
32400;DHT22;45045;45.440;9.178;2022-10-16T12:14:06;25.50;75.20
32400;DHT22;45045;45.440;9.178;2022-10-16T12:16:33;25.50;75.20
32400;DHT22;45045;45.440;9.178;2022-10-16T12:19:12;25.80;74.60
32400;DHT22;45045;45.440;9.178;2022-10-16T12:21:38;26.20;74.40
32400;DHT22;45045;45.440;9.178;2022-10-16T12:24:05;26.50;74.60
32400;DHT22;45045;45.440;9.178;2022-10-16T12:26:44;26.50;71.70
32400;DHT22;45045;45.440;9.178;2022-10-16T12:32:02;26.10;72.70
32400;DHT22;45045;45.440;9.178;2022-10-16T12:34:29;26.20;73.50
32400;DHT22;45045;45.440;9.178;2022-10-16T12:39:37;27.90;68.70
32400;DHT22;45045;45.440;9.178;2022-10-16T12:42:33;28.20;67.80
32400;DHT22;45045;45.440;9.178;2022-10-16T12:44:59;28.40;66.80
32400;DHT22;45045;45.440;9.178;2022-10-16T12:49:57;28.60;65.10
32400;DHT22;45045;45.440;9.178;2022-10-16T12:52:35;28.60;65.70
32400;DHT22;45045;45.440;9.178;2022-10-16T12:55:01;28.80;65.70
32400;DHT22;45045;45.440;9.178;2022-10-16T13:01:16;29.00;64.20
32400;DHT22;45045;45.440;9.178;2022-10-16T13:14:43;28.40;65.50
32400;DHT22;45045;45.440;9.178;2022-10-16T13:20:06;29.40;63.00
32400;DHT22;45045;45.440;9.178;2022-10-16T13:25:52;29.70;60.20
32400;DHT22;45045;45.440;9.178;2022-10-16T13:28:28;29.20;61.30
32400;DHT22;45045;45.440;9.178;2022-10-16T13:30:57;29.20;61.40
32400;DHT22;45045;45.440;9.178;2022-10-16T13:33:36;29.30;61.50
32400;DHT22;45045;45.440;9.178;2022-10-16T13:36:03;29.20;61.50
32400;DHT22;45045;45.440;9.178;2022-10-16T13:38:35;28.90;61.30
32400;DHT22;45045;45.440;9.178;2022-10-16T13:41:04;28.90;61.90
32400;DHT22;45045;45.440;9.178;2022-10-16T13:43:39;28.90;61.20
32400;DHT22;45045;45.440;9.178;2022-10-16T13:46:23;28.80;62.10
32400;DHT22;45045;45.440;9.178;2022-10-16T13:49:00;28.90;61.30
32400;DHT22;45045;45.440;9.178;2022-10-16T13:51:27;28.80;62.30
32400;DHT22;45045;45.440;9.178;2022-10-16T13:53:55;28.70;62.90
32400;DHT22;45045;45.440;9.178;2022-10-16T13:56:24;29.00;62.00
32400;DHT22;45045;45.440;9.178;2022-10-16T13:59:05;29.30;61.60
32400;DHT22;45045;45.440;9.178;2022-10-16T14:01:34;29.40;60.40
32400;DHT22;45045;45.440;9.178;2022-10-16T14:04:08;29.10;60.50
32400;DHT22;45045;45.440;9.178;2022-10-16T14:06:35;28.80;61.30
32400;DHT22;45045;45.440;9.178;2022-10-16T14:11:49;28.20;62.40
32400;DHT22;45045;45.440;9.178;2022-10-16T14:14:17;28.10;63.10
32400;DHT22;45045;45.440;9.178;2022-10-16T14:16:43;28.30;62.90
32400;DHT22;45045;45.440;9.178;2022-10-16T14:19:33;28.40;62.50
32400;DHT22;45045;45.440;9.178;2022-10-16T14:21:59;28.30;62.30
32400;DHT22;45045;45.440;9.178;2022-10-16T14:26:53;27.80;63.60
32400;DHT22;45045;45.440;9.178;2022-10-16T14:29:22;27.80;63.60
32400;DHT22;45045;45.440;9.178;2022-10-16T14:31:59;27.50;64.50
32400;DHT22;45045;45.440;9.178;2022-10-16T14:34:35;27.50;64.60
32400;DHT22;45045;45.440;9.178;2022-10-16T14:39:42;27.30;65.30
32400;DHT22;45045;45.440;9.178;2022-10-16T14:42:16;27.20;66.10
32400;DHT22;45045;45.440;9.178;2022-10-16T14:44:43;27.20;66.30
32400;DHT22;45045;45.440;9.178;2022-10-16T14:47:12;27.30;66.30
32400;DHT22;45045;45.440;9.178;2022-10-16T14:49:38;27.30;66.10
32400;DHT22;45045;45.440;9.178;2022-10-16T14:52:12;27.20;66.40
32400;DHT22;45045;45.440;9.178;2022-10-16T14:54:38;27.20;66.60
32400;DHT22;45045;45.440;9.178;2022-10-16T14:57:04;27.20;66.70
32400;DHT22;45045;45.440;9.178;2022-10-16T14:59:38;27.40;66.70
32400;DHT22;45045;45.440;9.178;2022-10-16T15:04:42;27.30;66.30
32400;DHT22;45045;45.440;9.178;2022-10-16T15:07:08;27.00;67.10
32400;DHT22;45045;45.440;9.178;2022-10-16T15:09:33;27.00;67.10
32400;DHT22;45045;45.440;9.178;2022-10-16T15:11:59;27.20;66.90
32400;DHT22;45045;45.440;9.178;2022-10-16T15:14:25;27.40;66.20
32400;DHT22;45045;45.440;9.178;2022-10-16T15:16:50;27.50;65.90
32400;DHT22;45045;45.440;9.178;2022-10-16T15:19:16;27.60;65.60
32400;DHT22;45045;45.440;9.178;2022-10-16T15:21:42;27.50;65.80
32400;DHT22;45045;45.440;9.178;2022-10-16T15:24:13;27.30;66.10
32400;DHT22;45045;45.440;9.178;2022-10-16T15:26:39;27.30;66.80
32400;DHT22;45045;45.440;9.178;2022-10-16T15:29:04;27.10;67.00
32400;DHT22;45045;45.440;9.178;2022-10-16T15:31:31;27.40;66.20
32400;DHT22;45045;45.440;9.178;2022-10-16T15:33:56;27.50;65.20
32400;DHT22;45045;45.440;9.178;2022-10-16T15:36:31;27.60;64.90
32400;DHT22;45045;45.440;9.178;2022-10-16T15:38:59;27.60;65.30
32400;DHT22;45045;45.440;9.178;2022-10-16T15:41:25;27.40;65.70
32400;DHT22;45045;45.440;9.178;2022-10-16T15:43:51;27.20;66.80
32400;DHT22;45045;45.440;9.178;2022-10-16T15:46:19;27.10;67.60
32400;DHT22;45045;45.440;9.178;2022-10-16T15:48:46;27.20;67.30
32400;DHT22;45045;45.440;9.178;2022-10-16T15:51:12;27.10;67.40
32400;DHT22;45045;45.440;9.178;2022-10-16T15:53:38;27.10;67.80
32400;DHT22;45045;45.440;9.178;2022-10-16T15:56:08;27.00;68.00
32400;DHT22;45045;45.440;9.178;2022-10-16T15:58:34;26.90;68.50
32400;DHT22;45045;45.440;9.178;2022-10-16T16:01:01;26.80;69.00
32400;DHT22;45045;45.440;9.178;2022-10-16T16:03:27;26.90;68.70
32400;DHT22;45045;45.440;9.178;2022-10-16T16:05:53;26.90;69.10
32400;DHT22;45045;45.440;9.178;2022-10-16T16:08:19;27.10;68.00
32400;DHT22;45045;45.440;9.178;2022-10-16T16:10:45;27.00;67.80
32400;DHT22;45045;45.440;9.178;2022-10-16T16:13:10;27.10;67.90
32400;DHT22;45045;45.440;9.178;2022-10-16T16:15:39;27.10;67.80
32400;DHT22;45045;45.440;9.178;2022-10-16T16:18:05;26.90;69.00
32400;DHT22;45045;45.440;9.178;2022-10-16T16:20:31;26.90;68.40
32400;DHT22;45045;45.440;9.178;2022-10-16T16:22:57;27.00;67.90
32400;DHT22;45045;45.440;9.178;2022-10-16T16:25:23;26.90;67.90
32400;DHT22;45045;45.440;9.178;2022-10-16T16:27:48;26.80;68.30
32400;DHT22;45045;45.440;9.178;2022-10-16T16:30:14;26.70;68.70
32400;DHT22;45045;45.440;9.178;2022-10-16T16:32:40;26.70;68.70
32400;DHT22;45045;45.440;9.178;2022-10-16T16:35:06;26.80;68.20
32400;DHT22;45045;45.440;9.178;2022-10-16T16:37:33;26.80;68.00
32400;DHT22;45045;45.440;9.178;2022-10-16T16:39:59;26.80;68.00
32400;DHT22;45045;45.440;9.178;2022-10-16T16:42:26;26.70;68.40
32400;DHT22;45045;45.440;9.178;2022-10-16T16:44:52;26.60;68.70
32400;DHT22;45045;45.440;9.178;2022-10-16T16:47:18;26.60;68.80
32400;DHT22;45045;45.440;9.178;2022-10-16T16:49:44;26.60;69.40
32400;DHT22;45045;45.440;9.178;2022-10-16T16:52:09;26.60;68.40
32400;DHT22;45045;45.440;9.178;2022-10-16T16:54:35;26.70;68.20
32400;DHT22;45045;45.440;9.178;2022-10-16T16:57:00;26.70;68.20
32400;DHT22;45045;45.440;9.178;2022-10-16T16:59:26;26.60;68.00
32400;DHT22;45045;45.440;9.178;2022-10-16T17:01:52;26.60;68.00
32400;DHT22;45045;45.440;9.178;2022-10-16T17:04:18;26.60;68.20
32400;DHT22;45045;45.440;9.178;2022-10-16T17:06:44;26.60;68.30
32400;DHT22;45045;45.440;9.178;2022-10-16T17:09:10;26.50;68.40
32400;DHT22;45045;45.440;9.178;2022-10-16T17:11:39;26.50;68.50
32400;DHT22;45045;45.440;9.178;2022-10-16T17:14:07;26.40;68.90
32400;DHT22;45045;45.440;9.178;2022-10-16T17:16:35;26.40;69.10
32400;DHT22;45045;45.440;9.178;2022-10-16T17:19:04;26.30;69.60
32400;DHT22;45045;45.440;9.178;2022-10-16T17:21:30;26.30;69.60
32400;DHT22;45045;45.440;9.178;2022-10-16T17:23:57;26.30;69.80
32400;DHT22;45045;45.440;9.178;2022-10-16T17:26:23;26.30;70.10
32400;DHT22;45045;45.440;9.178;2022-10-16T17:28:53;26.30;70.00
32400;DHT22;45045;45.440;9.178;2022-10-16T17:31:22;26.30;70.10
32400;DHT22;45045;45.440;9.178;2022-10-16T17:33:48;26.20;70.40
32400;DHT22;45045;45.440;9.178;2022-10-16T17:36:14;26.00;70.60
32400;DHT22;45045;45.440;9.178;2022-10-16T17:38:41;26.10;70.80
32400;DHT22;45045;45.440;9.178;2022-10-16T17:41:18;26.10;70.70
32400;DHT22;45045;45.440;9.178;2022-10-16T17:43:45;26.10;71.10
32400;DHT22;45045;45.440;9.178;2022-10-16T17:46:12;26.00;71.10
32400;DHT22;45045;45.440;9.178;2022-10-16T17:48:39;26.00;71.30
32400;DHT22;45045;45.440;9.178;2022-10-16T17:51:10;25.90;71.70